Current | Forecast
Updated: 2:00 PM JST on October 23, 2018
Observed at Miho AB, Japan
Temperature 17°C
Humidity 82%
Dew Point 14°C
Wind Variable at 4 km/h
Pressure 1016 hPa (Falling)
Conditions Light Rain
Visibility 10.0 kilometers
UV 1 out of 16
Clouds (FEW) : 304 m
Scattered Clouds (SCT) : 1524 m
Overcast (OVC) : 2438 m
Yesterday's Maximum 21°C
Yesterday's Minimum 14°C approx.
Yesterday's Heating Degree Days 1 approx.
Sunrise6:21 AM JST
Sunset5:22 PM JST
Moon Rise4:55 PM JST
Moon Set4:29 AM JST
Moon PhaseMoon Phase
Waxing Gibbous
Raw METARMETAR RJOH 230500Z VRB02KT 9999 -RA FEW010 SCT050 OVC080 17/14 Q1016



Units: English | Metric

Find the Weather for any City, State or Zipcode, or Country:

U.S. State List | Severe Weather | Tropical Storms | Ski Conditions
United States | Canada | Central America | South America | Asia | Europe | Australia | Africa | Islands

Weather Underground

© Copyright 2018
The Weather Company, LLC